Time;durP1;ratioP1;P1;durP2;ratioP2;P2;SDS_P1;SDS_P2;PMS_P1;PMS_P2;Temp;Humidity;BMP_temperature;BMP_pressure;BME280_temperature;BME280_humidity;BME280_pressure;Samples;Min_cycle;Max_cycle;Signal;HPM_P1;HPM_P2
2022/07/19 00:02:05;;;;;;;163.15;154.45;;;;;;;22.93;45.52;97078.19;5068644;28;20201;-63
2022/07/19 00:04:32;;;;;;;110.55;104.70;;;;;;;22.83;45.81;97097.13;5067780;28;20192;-63
2022/07/19 00:06:57;;;;;;;102.57;97.18;;;;;;;22.85;45.68;97079.69;5067217;28;20218;-63
2022/07/19 00:09:25;;;;;;;125.10;118.45;;;;;;;22.63;46.83;97084.91;5072096;28;20182;-63
2022/07/19 00:11:51;;;;;;;157.90;149.50;;;;;;;22.52;47.01;97086.16;5073003;28;20181;-63
2022/07/19 00:14:16;;;;;;;199.60;188.48;;;;;;;22.51;46.60;97085.41;5071988;28;20197;-63
2022/07/19 00:16:42;;;;;;;275.38;261.75;;;;;;;22.55;46.78;97085.59;5073018;28;20177;-63
2022/07/19 00:19:08;;;;;;;252.00;239.45;;;;;;;22.61;46.20;97081.75;5072584;28;20282;-68
2022/07/19 00:21:33;;;;;;;277.17;263.27;;;;;;;22.60;46.11;97082.84;5072522;28;20204;-63
2022/07/19 00:24:00;;;;;;;233.68;222.23;;;;;;;22.35;46.15;97082.19;5072896;28;20599;-62
2022/07/19 00:26:29;;;;;;;218.63;207.88;;;;;;;22.43;45.95;97077.28;5072960;28;20177;-62
2022/07/19 00:28:56;;;;;;;175.20;166.38;;;;;;;22.40;45.85;97081.34;5072977;28;20183;-63
2022/07/19 00:31:24;;;;;;;178.20;169.18;;;;;;;22.51;45.51;97074.72;5072894;28;20234;-63
2022/07/19 00:33:50;;;;;;;218.05;207.10;;;;;;;22.47;45.37;97079.06;5072636;28;20184;-64
2022/07/19 00:36:16;;;;;;;169.27;160.50;;;;;;;22.47;44.82;97080.94;5054630;28;20616;-63
2022/07/19 00:38:42;;;;;;;218.60;207.90;;;;;;;22.50;45.24;97075.00;5072974;28;20271;-62
2022/07/19 00:41:07;;;;;;;356.75;338.52;;;;;;;22.38;45.55;97073.59;5072402;28;20215;-63
2022/07/19 00:43:32;;;;;;;367.85;349.17;;;;;;;22.43;45.42;97074.59;5072505;28;20587;-65
2022/07/19 00:45:58;;;;;;;345.40;328.05;;;;;;;22.24;45.69;97071.97;5072573;28;20192;-63
2022/07/19 00:48:24;;;;;;;330.63;314.05;;;;;;;22.23;45.73;97073.09;5072390;28;20646;-63
2022/07/19 00:50:49;;;;;;;326.95;310.42;;;;;;;22.10;46.08;97065.84;5054868;28;20370;-63
2022/07/19 00:53:15;;;;;;;247.20;235.07;;;;;;;22.10;45.09;97063.97;5070956;28;20493;-63
2022/07/19 00:55:43;;;;;;;187.32;177.93;;;;;;;22.18;44.65;97065.19;5049804;28;20861;-63
2022/07/19 00:58:10;;;;;;;135.75;128.77;;;;;;;22.16;44.25;97070.00;5067787;28;20258;-64
2022/07/19 01:00:37;;;;;;;97.15;92.13;;;;;;;22.14;44.17;97074.84;5067326;28;20258;-63
2022/07/19 01:03:02;;;;;;;90.80;86.00;;;;;;;22.23;44.24;97071.22;5067186;28;20204;-63
2022/07/19 01:05:28;;;;;;;90.20;85.65;;;;;;;22.27;43.91;97074.09;5067513;28;20536;-64
2022/07/19 01:07:53;;;;;;;76.75;72.85;;;;;;;22.28;43.56;97071.13;5068636;28;20185;-66
2022/07/19 01:10:19;;;;;;;92.07;87.50;;;;;;;22.12;44.63;97069.81;5072421;28;20549;-63
2022/07/19 01:12:46;;;;;;;67.85;64.15;;;;;;;22.14;43.54;97072.16;5071879;28;20185;-63
2022/07/19 01:15:19;;;;;;;67.20;63.45;;;;;;;21.99;44.50;97075.91;5072621;28;20652;-63
2022/07/19 01:17:46;;;;;;;88.20;83.65;;;;;;;22.08;44.69;97079.47;5072221;28;20220;-63
2022/07/19 01:20:12;;;;;;;124.40;117.90;;;;;;;22.00;44.83;97077.47;5071802;28;20250;-63
2022/07/19 01:22:37;;;;;;;192.15;182.63;;;;;;;21.96;45.14;97081.81;5072261;28;20268;-64
2022/07/19 01:25:04;;;;;;;324.58;308.20;;;;;;;21.99;45.59;97075.91;5072150;28;20208;-63
2022/07/19 01:27:29;;;;;;;337.63;319.38;;;;;;;21.81;46.41;97072.16;5072406;28;20188;-63
2022/07/19 01:29:55;;;;;;;267.85;254.27;;;;;;;21.74;46.99;97076.25;5072013;28;20181;-64
2022/07/19 01:32:20;;;;;;;165.07;156.60;;;;;;;21.78;46.98;97069.28;5072214;28;20185;-64
2022/07/19 01:34:45;;;;;;;95.97;91.03;;;;;;;21.75;47.28;97075.97;5071966;28;20619;-64
2022/07/19 01:37:11;;;;;;;81.80;76.43;;;;;;;21.61;47.78;97066.34;5072352;28;20192;-64
2022/07/19 01:39:36;;;;;;;82.25;77.57;;;;;;;21.72;47.76;97067.75;5071802;28;20189;-64
2022/07/19 01:42:01;;;;;;;111.03;105.18;;;;;;;21.74;48.00;97076.25;5071746;28;20204;-64
2022/07/19 01:44:27;;;;;;;144.60;137.25;;;;;;;21.57;48.32;97068.78;5071561;28;20248;-64
2022/07/19 01:46:52;;;;;;;142.75;135.18;;;;;;;21.39;48.59;97067.72;5071985;28;20185;-64
2022/07/19 01:49:17;;;;;;;144.13;136.13;;;;;;;21.54;48.64;97075.50;5054340;28;20194;-64
2022/07/19 01:51:43;;;;;;;129.07;122.25;;;;;;;21.50;48.30;97073.69;5072288;28;20222;-64
2022/07/19 01:54:08;;;;;;;111.85;105.93;;;;;;;21.40;48.55;97074.63;5071931;28;20369;-64
2022/07/19 01:56:33;;;;;;;80.82;76.57;;;;;;;21.42;48.44;97077.00;5070065;28;20209;-64
2022/07/19 01:58:59;;;;;;;76.85;72.70;;;;;;;21.35;48.41;97073.91;5070698;28;20193;-64
2022/07/19 02:01:24;;;;;;;66.18;62.53;;;;;;;21.24;48.74;97070.56;5070910;28;20224;-65
2022/07/19 02:03:49;;;;;;;67.00;62.75;;;;;;;21.07;49.22;97057.72;5070067;28;20229;-64
2022/07/19 02:06:15;;;;;;;68.07;64.30;;;;;;;21.21;48.57;97065.84;5072574;28;20235;-64
2022/07/19 02:08:41;;;;;;;63.92;60.38;;;;;;;21.19;48.52;97067.19;5074795;28;20220;-64
2022/07/19 02:13:51;;;;;;;63.58;60.15;;;;;;;21.08;48.66;97056.63;5074223;28;20704;-63
2022/07/19 02:16:16;;;;;;;68.70;64.93;;;;;;;21.11;48.33;97060.63;5075574;28;20177;-63
2022/07/19 02:18:41;;;;;;;64.25;60.63;;;;;;;21.17;48.36;97056.84;5075188;28;20204;-64
2022/07/19 02:21:07;;;;;;;71.72;67.30;;;;;;;21.10;48.72;97049.16;5075347;28;20209;-63
2022/07/19 02:23:32;;;;;;;72.60;68.80;;;;;;;21.13;48.41;97051.22;5075010;28;20173;-64
2022/07/19 02:25:57;;;;;;;81.70;77.45;;;;;;;21.21;48.23;97052.50;5074567;28;20181;-63
2022/07/19 02:28:23;;;;;;;92.63;87.68;;;;;;;21.05;48.80;97051.09;5074994;28;20208;-62
2022/07/19 02:30:48;;;;;;;102.78;97.32;;;;;;;20.93;49.63;97038.19;5074931;28;20634;-63
2022/07/19 02:33:13;;;;;;;106.30;100.82;;;;;;;20.84;49.80;97047.09;5075320;28;20536;-63
2022/07/19 02:35:39;;;;;;;117.80;111.78;;;;;;;20.79;50.00;97047.16;5074372;28;20556;-63
2022/07/19 02:38:04;;;;;;;116.35;110.60;;;;;;;20.71;50.04;97048.59;5074963;28;20273;-65
2022/07/19 02:40:30;;;;;;;112.15;106.10;;;;;;;20.75;50.22;97050.38;5074703;28;20288;-63
2022/07/19 02:42:55;;;;;;;84.80;80.35;;;;;;;20.73;50.16;97041.13;5074558;28;20182;-63
2022/07/19 02:45:20;;;;;;;66.13;62.80;;;;;;;20.62;50.77;97042.28;5074774;28;20210;-63
2022/07/19 02:47:47;;;;;;;54.28;51.50;;;;;;;20.68;50.13;97039.28;5056896;28;20193;-64
2022/07/19 02:50:12;;;;;;;48.15;45.42;;;;;;;20.65;50.28;97036.41;5074646;28;20192;-64
2022/07/19 02:52:37;;;;;;;43.83;41.20;;;;;;;20.71;50.15;97043.25;5074669;28;20185;-62
2022/07/19 02:55:03;;;;;;;39.38;37.30;;;;;;;20.61;50.13;97036.19;5074599;28;20266;-63
2022/07/19 02:57:28;;;;;;;37.72;35.58;;;;;;;20.70;49.94;97045.13;5074628;28;20182;-63
2022/07/19 02:59:54;;;;;;;34.90;32.83;;;;;;;20.58;49.97;97034.06;5074436;28;20242;-63
2022/07/19 03:02:19;;;;;;;32.58;30.73;;;;;;;20.63;49.82;97043.88;5073858;28;20629;-64
2022/07/19 03:04:45;;;;;;;30.45;28.65;;;;;;;20.63;49.72;97035.88;5073889;28;20211;-62
2022/07/19 03:07:10;;;;;;;29.33;27.73;;;;;;;20.57;49.65;97040.47;5074459;28;20192;-63
2022/07/19 03:09:36;;;;;;;29.40;27.73;;;;;;;20.62;49.43;97034.28;5074348;28;20539;-63
2022/07/19 03:12:02;;;;;;;23.63;22.17;;;;;;;20.67;49.41;97032.34;5071518;28;20197;-65
2022/07/19 03:14:27;;;;;;;22.75;21.52;;;;;;;20.72;48.92;97036.84;5068170;28;20832;-63
2022/07/19 03:16:53;;;;;;;24.80;23.20;;;;;;;20.59;49.40;97035.66;5069196;28;20184;-63
2022/07/19 03:19:18;;;;;;;24.40;23.08;;;;;;;20.64;49.27;97029.47;5068609;28;20618;-63
2022/07/19 03:21:43;;;;;;;25.80;24.40;;;;;;;20.50;49.55;97033.91;5069675;28;20657;-63
2022/07/19 03:24:09;;;;;;;24.45;22.95;;;;;;;20.56;49.67;97030.13;5068611;28;20243;-64
2022/07/19 03:26:34;;;;;;;25.27;23.77;;;;;;;20.56;49.62;97028.22;5072212;28;20196;-63
2022/07/19 03:28:59;;;;;;;24.00;22.50;;;;;;;20.34;50.04;97028.75;5073856;28;20293;-62
2022/07/19 03:31:25;;;;;;;22.27;20.77;;;;;;;20.44;50.09;97033.19;5073871;28;20181;-65
2022/07/19 03:33:50;;;;;;;21.05;19.75;;;;;;;20.52;49.82;97035.19;5073673;28;20641;-65
2022/07/19 03:36:16;;;;;;;21.77;20.40;;;;;;;20.50;50.22;97033.91;5073884;28;20268;-65
2022/07/19 03:38:41;;;;;;;19.45;18.30;;;;;;;20.38;50.55;97028.97;5073348;28;20652;-65
2022/07/19 03:41:06;;;;;;;17.27;16.15;;;;;;;20.34;50.49;97028.75;5073410;28;20661;-65
2022/07/19 03:43:32;;;;;;;17.33;16.25;;;;;;;20.20;50.92;97032.34;5073350;28;20212;-65
2022/07/19 03:45:57;;;;;;;18.23;17.05;;;;;;;20.19;51.36;97028.06;5073593;28;20548;-65
2022/07/19 03:48:22;;;;;;;21.30;19.95;;;;;;;20.34;50.99;97030.59;5073410;28;20184;-65
2022/07/19 03:50:48;;;;;;;23.15;21.63;;;;;;;20.22;51.34;97031.00;5072973;28;20188;-65
2022/07/19 03:53:13;;;;;;;28.83;27.08;;;;;;;20.09;51.93;97026.31;5073563;28;20254;-62
2022/07/19 03:55:39;;;;;;;44.03;41.17;;;;;;;20.32;50.91;97027.44;5073246;28;20225;-64
2022/07/19 03:58:04;;;;;;;53.70;50.72;;;;;;;20.54;50.67;97032.25;5073250;28;20211;-65
2022/07/19 04:00:30;;;;;;;60.90;57.42;;;;;;;20.55;50.46;97029.31;5073351;28;20294;-62
2022/07/19 04:02:56;;;;;;;48.03;45.47;;;;;;;20.54;50.29;97033.06;5072243;28;20184;-62
2022/07/19 04:05:21;;;;;;;27.70;25.98;;;;;;;20.79;49.80;97036.50;5073106;28;20211;-62
2022/07/19 04:07:46;;;;;;;25.55;24.05;;;;;;;21.10;48.99;97032.38;5073143;28;20185;-65
2022/07/19 04:10:12;;;;;;;21.80;20.50;;;;;;;21.23;48.64;97033.56;5071292;28;20622;-66
2022/07/19 04:12:37;;;;;;;23.58;22.17;;;;;;;21.06;48.86;97032.16;5066598;28;20196;-65
2022/07/19 04:15:03;;;;;;;38.00;35.80;;;;;;;21.35;47.59;97039.22;5067913;28;20537;-65
2022/07/19 04:17:28;;;;;;;48.13;45.38;;;;;;;21.47;47.37;97045.72;5068177;28;20962;-66
2022/07/19 04:19:54;;;;;;;57.03;54.03;;;;;;;21.62;46.78;97049.25;5068011;28;20183;-64
2022/07/19 04:22:19;;;;;;;65.70;62.15;;;;;;;21.65;46.72;97046.00;5072607;28;20213;-63
2022/07/19 04:24:44;;;;;;;71.78;67.85;;;;;;;21.84;46.35;97041.44;5073165;28;20264;-65
2022/07/19 04:27:10;;;;;;;80.10;75.85;;;;;;;21.84;46.33;97052.91;5073360;28;20521;-63
2022/07/19 04:29:35;;;;;;;81.53;76.93;;;;;;;22.02;46.59;97050.47;5073200;28;20182;-62
2022/07/19 04:32:01;;;;;;;90.05;85.03;;;;;;;22.09;46.29;97050.91;5073080;28;20231;-63
2022/07/19 04:34:26;;;;;;;85.88;81.18;;;;;;;22.39;45.63;97051.16;5072815;28;20181;-63
2022/07/19 04:36:51;;;;;;;86.03;80.95;;;;;;;22.36;46.14;97050.94;5073465;28;20189;-63
2022/07/19 04:39:17;;;;;;;82.03;77.60;;;;;;;22.36;46.17;97054.41;5054747;28;20661;-63
2022/07/19 04:41:42;;;;;;;68.13;64.53;;;;;;;22.71;45.54;97046.81;5072521;28;20205;-63
2022/07/19 04:44:07;;;;;;;84.20;79.78;;;;;;;22.69;45.34;97043.63;5072844;28;20226;-65
2022/07/19 04:46:33;;;;;;;99.78;94.63;;;;;;;22.24;46.60;97054.09;5054872;28;20184;-63
2022/07/19 04:48:58;;;;;;;162.68;154.57;;;;;;;22.31;46.71;97057.16;5072527;28;20702;-63
2022/07/19 04:51:24;;;;;;;221.73;210.13;;;;;;;22.40;46.54;97059.97;5072400;28;20578;-63
2022/07/19 04:53:49;;;;;;;321.00;303.75;;;;;;;22.85;44.79;97049.50;5072801;28;20180;-63
2022/07/19 04:56:14;;;;;;;351.52;332.73;;;;;;;22.78;45.43;97049.91;5072795;28;20239;-64
2022/07/19 04:58:40;;;;;;;428.55;404.80;;;;;;;22.80;45.15;97051.19;5072511;28;20181;-63
2022/07/19 05:01:05;;;;;;;530.97;499.40;;;;;;;23.39;43.98;97048.59;5072152;28;20208;-65
2022/07/19 05:03:30;;;;;;;567.95;535.88;;;;;;;23.76;42.82;97053.66;5071911;28;20463;-63
2022/07/19 05:05:56;;;;;;;596.40;565.42;;;;;;;24.36;41.84;97039.84;5071954;28;20272;-64
2022/07/19 05:08:22;;;;;;;485.83;460.50;;;;;;;24.52;40.70;97048.28;5071424;28;20185;-64
2022/07/19 05:10:47;;;;;;;278.52;263.58;;;;;;;24.33;40.67;97046.63;5068293;28;20294;-63
2022/07/19 05:13:12;;;;;;;182.48;173.13;;;;;;;24.70;39.93;97048.00;5065999;28;20192;-64
2022/07/19 05:15:38;;;;;;;386.83;366.73;;;;;;;25.13;39.16;97050.06;5067569;28;20556;-65
2022/07/19 05:18:03;;;;;;;511.33;483.90;;;;;;;25.42;38.42;97041.38;5067356;28;20190;-64
2022/07/19 05:20:29;;;;;;;522.85;495.20;;;;;;;25.67;38.15;97044.09;5067154;28;20292;-64
2022/07/19 05:22:54;;;;;;;283.48;268.92;;;;;;;25.81;37.83;97040.44;5071368;28;20595;-64
2022/07/19 05:25:19;;;;;;;225.57;213.85;;;;;;;26.05;37.80;97052.25;5071687;28;20189;-63
2022/07/19 05:27:45;;;;;;;132.93;126.18;;;;;;;26.35;37.10;97038.94;5073057;28;20226;-63
2022/07/19 05:30:11;;;;;;;78.28;74.22;;;;;;;26.51;36.42;97041.88;5076088;28;20603;-61
2022/07/19 05:32:37;;;;;;;52.83;49.97;;;;;;;26.19;36.98;97051.28;5076154;28;20185;-64
2022/07/19 05:35:02;;;;;;;44.15;41.42;;;;;;;26.55;36.45;97040.09;5075872;28;20587;-61
2022/07/19 05:37:28;;;;;;;39.90;37.70;;;;;;;26.92;36.21;97043.94;5075617;28;20189;-62
2022/07/19 05:39:53;;;;;;;41.67;39.47;;;;;;;26.77;35.89;97046.03;5075299;28;20205;-64
2022/07/19 05:42:19;;;;;;;45.20;42.88;;;;;;;26.48;36.19;97044.09;5057697;28;20204;-61
2022/07/19 05:44:44;;;;;;;53.67;50.78;;;;;;;26.20;36.82;97044.78;5075882;28;20178;-61
2022/07/19 05:47:09;;;;;;;65.03;61.53;;;;;;;26.68;35.69;97049.88;5075871;28;20230;-61
2022/07/19 05:49:35;;;;;;;61.58;58.20;;;;;;;26.37;36.18;97045.56;5075039;28;20181;-61
2022/07/19 05:52:00;;;;;;;62.20;58.95;;;;;;;26.25;35.84;97042.75;5075634;28;20549;-62
2022/07/19 05:54:25;;;;;;;118.68;112.15;;;;;;;26.92;35.72;97043.94;5075336;28;20351;-62
2022/07/19 05:56:51;;;;;;;119.88;113.88;;;;;;;27.09;35.67;97044.59;5075643;28;20185;-62
2022/07/19 05:59:20;;;;;;;87.40;82.78;;;;;;;27.30;34.86;97050.81;5075342;28;20196;-62
2022/07/19 06:01:46;;;;;;;68.25;64.68;;;;;;;27.42;34.40;97046.59;5075378;28;20204;-62
2022/07/19 06:04:11;;;;;;;78.13;73.88;;;;;;;27.45;35.11;97048.63;5074871;28;20186;-62
2022/07/19 06:06:37;;;;;;;79.63;75.20;;;;;;;27.55;35.30;97049.03;5075351;28;20189;-62
2022/07/19 06:09:03;;;;;;;74.07;70.07;;;;;;;27.63;35.00;97045.50;5071873;28;20185;-62
2022/07/19 06:11:28;;;;;;;172.73;164.27;;;;;;;27.64;35.80;97043.59;5069696;28;20193;-63
2022/07/19 06:13:54;;;;;;;202.75;192.85;;;;;;;28.01;35.46;97050.69;5069957;28;20190;-63
2022/07/19 06:16:20;;;;;;;77.00;73.00;;;;;;;27.91;34.62;97044.94;5071112;28;20259;-62
2022/07/19 06:18:45;;;;;;;77.03;72.72;;;;;;;27.51;34.70;97040.06;5070792;28;20239;-63
2022/07/19 06:21:13;;;;;;;82.55;78.40;;;;;;;27.56;34.68;97047.94;5074536;28;20705;-62
2022/07/19 06:23:40;;;;;;;80.07;76.00;;;;;;;27.38;34.76;97038.38;5074060;28;20196;-62
2022/07/19 06:26:06;;;;;;;76.53;72.43;;;;;;;27.63;34.74;97045.50;5074846;28;20193;-63
2022/07/19 06:28:32;;;;;;;134.48;127.93;;;;;;;27.81;35.07;97042.66;5074451;28;20181;-64
2022/07/19 06:30:58;;;;;;;74.45;70.60;;;;;;;27.88;34.11;97050.97;5074793;28;20180;-63
2022/07/19 06:33:23;;;;;;;66.22;62.85;;;;;;;28.18;34.06;97048.97;5075083;28;20177;-61
2022/07/19 06:35:49;;;;;;;68.80;65.30;;;;;;;28.24;33.66;97053.81;5074807;28;20256;-64
2022/07/19 06:38:14;;;;;;;68.60;64.75;;;;;;;28.24;33.59;97050.31;5074782;28;20213;-63
2022/07/19 06:40:40;;;;;;;46.53;43.75;;;;;;;28.04;33.43;97044.63;5074264;28;20209;-63
2022/07/19 06:43:05;;;;;;;64.70;60.88;;;;;;;28.25;33.70;97047.31;5072716;28;20251;-61
2022/07/19 06:45:31;;;;;;;41.83;39.53;;;;;;;28.17;32.97;97050.06;5074391;28;20531;-61
2022/07/19 06:47:56;;;;;;;34.45;32.53;;;;;;;27.96;33.11;97042.81;5056751;28;20187;-61
2022/07/19 06:50:22;;;;;;;33.92;32.03;;;;;;;27.81;33.15;97045.34;5074601;28;20656;-61
2022/07/19 06:52:47;;;;;;;34.90;32.90;;;;;;;27.80;33.41;97041.06;5075013;28;20192;-61
2022/07/19 06:55:13;;;;;;;36.90;34.75;;;;;;;27.93;32.72;97039.97;5074783;28;20225;-61
2022/07/19 06:57:38;;;;;;;40.33;38.17;;;;;;;28.02;32.58;97041.50;5074789;28;20267;-61
2022/07/19 07:00:07;;;;;;;36.10;33.95;;;;;;;28.07;33.19;97037.78;5074530;28;20230;-61
2022/07/19 07:02:32;;;;;;;35.72;33.05;;;;;;;28.53;32.78;97034.72;5074237;28;20185;-61
2022/07/19 07:04:58;;;;;;;33.13;31.08;;;;;;;28.29;32.89;97044.72;5074543;28;20186;-62
2022/07/19 07:07:23;;;;;;;34.40;32.28;;;;;;;28.33;32.94;97046.41;5074553;28;20626;-62
2022/07/19 07:09:48;;;;;;;30.88;29.13;;;;;;;28.51;32.72;97042.38;5074642;28;20595;-61
2022/07/19 07:12:14;;;;;;;30.73;28.83;;;;;;;28.62;32.43;97040.03;5073721;28;20235;-61
2022/07/19 07:14:39;;;;;;;27.08;25.42;;;;;;;28.65;33.33;97038.56;5074074;28;20184;-61
2022/07/19 07:17:05;;;;;;;24.35;22.95;;;;;;;28.83;33.25;97039.94;5074256;28;20265;-61
2022/07/19 07:19:30;;;;;;;19.88;18.75;;;;;;;29.02;32.45;97042.88;5074307;28;20593;-64
2022/07/19 07:21:59;;;;;;;22.33;20.83;;;;;;;29.45;33.07;97044.94;5074093;28;20288;-61
2022/07/19 07:24:25;;;;;;;21.48;20.08;;;;;;;29.69;32.74;97035.97;5074105;28;20181;-61
2022/07/19 07:26:50;;;;;;;22.45;21.20;;;;;;;29.60;32.15;97036.09;5074335;28;20180;-64
2022/07/19 07:29:16;;;;;;;28.88;27.15;;;;;;;29.79;31.73;97037.38;5073790;28;20644;-62
2022/07/19 07:31:41;;;;;;;33.20;31.35;;;;;;;29.66;31.46;97031.25;5073837;28;20185;-62
2022/07/19 07:34:06;;;;;;;46.47;43.95;;;;;;;29.63;30.41;97027.31;5073858;28;20585;-61
2022/07/19 07:36:32;;;;;;;45.90;43.50;;;;;;;29.21;31.81;97032.25;5073833;28;20193;-61
2022/07/19 07:38:57;;;;;;;50.60;47.70;;;;;;;29.64;31.98;97028.09;5073888;28;20185;-61
2022/07/19 07:41:22;;;;;;;44.08;41.25;;;;;;;29.87;31.74;97029.09;5073566;28;20594;-61
2022/07/19 07:43:48;;;;;;;46.20;43.60;;;;;;;29.81;30.37;97032.44;5073669;28;20265;-63
2022/07/19 07:46:13;;;;;;;48.70;46.05;;;;;;;30.06;30.65;97031.19;5073640;28;20224;-62
2022/07/19 07:48:38;;;;;;;47.50;44.60;;;;;;;29.72;31.39;97025.25;5073751;28;20216;-62
2022/07/19 07:51:04;;;;;;;54.33;51.47;;;;;;;30.04;30.90;97026.13;5072559;28;20544;-62
2022/07/19 07:53:30;;;;;;;55.50;52.33;;;;;;;30.34;31.62;97021.09;5073384;28;20196;-62
2022/07/19 07:55:55;;;;;;;45.20;42.55;;;;;;;29.55;31.33;97013.94;5073581;28;20232;-63
2022/07/19 07:58:21;;;;;;;58.78;55.40;;;;;;;29.78;31.80;97023.09;5073874;28;20217;-63
2022/07/19 08:00:46;;;;;;;38.75;36.38;;;;;;;28.91;31.52;97020.16;5073359;28;20201;-62
2022/07/19 08:03:12;;;;;;;55.90;52.83;;;;;;;29.42;31.89;97021.31;5055052;28;20185;-62
2022/07/19 08:05:37;;;;;;;45.72;43.28;;;;;;;29.57;30.71;97022.50;5073555;28;20173;-62
2022/07/19 08:08:03;;;;;;;62.40;59.05;;;;;;;29.73;30.50;97023.34;5073369;28;20189;-62
2022/07/19 08:10:32;;;;;;;57.60;54.60;;;;;;;29.77;31.49;97022.28;5073386;28;20656;-62
2022/07/19 08:12:59;;;;;;;61.13;57.78;;;;;;;29.66;30.50;97025.84;5072216;28;20292;-62
2022/07/19 08:15:24;;;;;;;75.78;71.82;;;;;;;29.70;31.06;97010.53;5073015;28;20185;-62
2022/07/19 08:17:49;;;;;;;62.63;59.10;;;;;;;29.72;31.22;97021.75;5073315;28;20199;-62
2022/07/19 08:20:15;;;;;;;69.63;65.88;;;;;;;29.33;31.37;97018.75;5073055;28;20177;-62
2022/07/19 08:22:41;;;;;;;72.57;68.72;;;;;;;29.49;30.34;97018.81;5073294;28;20181;-62
2022/07/19 08:25:07;;;;;;;80.20;76.13;;;;;;;29.56;30.68;97015.53;5073023;28;20529;-62
2022/07/19 08:27:33;;;;;;;70.05;66.47;;;;;;;29.38;31.54;97009.59;5073038;28;20614;-62
2022/07/19 08:29:58;;;;;;;55.05;51.95;;;;;;;29.73;30.44;97017.94;5073045;28;20242;-62
2022/07/19 08:32:24;;;;;;;57.20;54.03;;;;;;;29.85;31.57;97019.78;5072802;28;20185;-62
2022/07/19 08:34:49;;;;;;;61.92;58.50;;;;;;;29.42;31.19;97007.81;5073230;28;20185;-62
2022/07/19 08:37:14;;;;;;;58.30;54.65;;;;;;;29.36;31.84;97014.59;5073090;28;20193;-62
2022/07/19 08:39:40;;;;;;;57.70;54.53;;;;;;;29.60;30.74;97011.00;5072244;28;20206;-62
2022/07/19 08:42:05;;;;;;;57.88;54.80;;;;;;;29.81;30.67;97002.69;5072867;28;20250;-62
2022/07/19 08:44:35;;;;;;;42.08;39.85;;;;;;;29.51;30.49;97000.34;5072648;28;20181;-62
2022/07/19 08:47:01;;;;;;;50.25;47.50;;;;;;;29.17;30.90;97006.25;5073068;28;20165;-62
2022/07/19 08:49:26;;;;;;;54.63;51.53;;;;;;;29.89;29.84;97005.22;5073186;28;20188;-62
2022/07/19 08:51:52;;;;;;;44.63;42.22;;;;;;;29.95;29.89;97008.50;5072914;28;20247;-62
2022/07/19 08:54:19;;;;;;;38.17;35.97;;;;;;;30.14;29.37;97009.41;5072231;28;20263;-62
2022/07/19 08:59:28;;;;;;;39.80;37.72;;;;;;;29.51;30.26;97007.66;5072714;28;20180;-62
2022/07/19 09:01:53;;;;;;;36.95;34.85;;;;;;;29.62;30.22;97004.13;5074327;28;20201;-64
2022/07/19 09:04:21;;;;;;;42.35;39.85;;;;;;;30.07;29.21;97014.63;5076535;28;20189;-62
2022/07/19 09:06:48;;;;;;;68.53;64.88;;;;;;;30.41;28.33;97012.38;5076774;28;20268;-62
2022/07/19 09:09:18;;;;;;;113.07;107.43;;;;;;;30.02;28.34;97017.59;5076891;28;20692;-63
2022/07/19 09:11:50;;;;;;;146.85;139.52;;;;;;;30.19;28.36;97011.06;5076203;28;20649;-62
2022/07/19 09:14:22;;;;;;;136.77;129.90;;;;;;;30.17;27.92;97013.31;5058640;28;20264;-62
2022/07/19 09:17:02;;;;;;;132.32;125.72;;;;;;;30.29;27.57;97007.06;5076678;28;20181;-62
2022/07/19 09:19:34;;;;;;;144.90;137.65;;;;;;;30.02;27.22;97012.19;5076554;28;20635;-62
2022/07/19 09:22:11;;;;;;;93.88;89.07;;;;;;;29.78;27.09;97009.56;5076093;28;20197;-62
2022/07/19 09:24:41;;;;;;;96.65;91.60;;;;;;;29.50;27.31;97004.16;5076109;28;20244;-62
2022/07/19 09:27:12;;;;;;;95.30;90.43;;;;;;;30.11;26.79;97009.31;5076466;28;20179;-62
2022/07/19 09:29:44;;;;;;;87.28;82.25;;;;;;;30.08;27.40;97018.91;5076362;28;20227;-62
2022/07/19 09:32:11;;;;;;;69.95;66.15;;;;;;;30.33;26.49;97007.91;5076048;28;20177;-62
2022/07/19 09:34:40;;;;;;;67.10;63.63;;;;;;;30.81;26.55;97007.59;5076115;28;20207;-62
2022/07/19 09:37:18;;;;;;;62.00;58.72;;;;;;;30.12;26.59;97008.97;5075750;28;20267;-62
2022/07/19 09:39:47;;;;;;;59.20;55.78;;;;;;;29.94;25.87;97013.13;5075786;28;20182;-62
2022/07/19 09:42:14;;;;;;;59.67;56.53;;;;;;;29.96;25.94;97010.06;5075823;28;20215;-62
2022/07/19 09:44:39;;;;;;;70.10;66.07;;;;;;;29.90;25.65;97008.72;5075956;28;20181;-62
2022/07/19 09:47:05;;;;;;;53.40;50.58;;;;;;;30.10;25.66;97008.50;5075826;28;20185;-62
2022/07/19 09:49:30;;;;;;;56.78;53.58;;;;;;;30.09;26.22;97001.53;5076110;28;20180;-62
2022/07/19 09:51:56;;;;;;;57.92;54.60;;;;;;;30.34;25.26;97010.28;5075599;28;20184;-62
2022/07/19 09:54:26;;;;;;;55.78;52.70;;;;;;;30.49;25.92;97006.03;5075610;28;20316;-62
2022/07/19 09:56:53;;;;;;;63.08;59.70;;;;;;;30.38;25.87;96994.91;5075649;28;20920;-62
2022/07/19 09:59:20;;;;;;;60.38;56.92;;;;;;;29.97;25.87;96996.22;5075815;28;20185;-62
2022/07/19 10:01:50;;;;;;;54.95;51.75;;;;;;;30.19;26.17;96996.75;5075479;28;20663;-62
2022/07/19 10:04:18;;;;;;;49.78;47.10;;;;;;;30.15;25.80;96989.31;5074665;28;20185;-61
2022/07/19 10:06:45;;;;;;;50.70;47.92;;;;;;;30.58;26.23;96995.81;5041339;28;20283;-62
2022/07/19 10:09:12;;;;;;;56.38;53.03;;;;;;;30.51;25.83;96991.03;5075766;28;20182;-62
2022/07/19 10:11:38;;;;;;;62.75;59.38;;;;;;;30.40;25.37;96991.88;5074694;28;20196;-62
2022/07/19 10:14:04;;;;;;;59.47;56.05;;;;;;;30.58;25.46;96995.03;5074620;28;20182;-62
2022/07/19 10:16:51;;;;;;;52.13;49.22;;;;;;;30.78;24.68;96991.25;5075479;28;20188;-62
2022/07/19 10:19:22;;;;;;;62.40;58.38;;;;;;;30.82;24.77;96992.09;5075583;28;20166;-62
2022/07/19 10:21:48;;;;;;;62.92;59.42;;;;;;;30.53;25.41;96982.56;5074976;28;20673;-62
2022/07/19 10:24:14;;;;;;;62.35;59.08;;;;;;;30.28;25.49;96992.75;5075285;28;20190;-62
2022/07/19 10:26:41;;;;;;;55.75;52.85;;;;;;;30.37;25.18;96984.47;5074997;28;20188;-62
2022/07/19 10:29:16;;;;;;;69.10;65.50;;;;;;;30.33;24.94;96980.88;5074996;28;20270;-62
2022/07/19 10:31:43;;;;;;;58.67;55.55;;;;;;;30.43;25.79;96975.72;5075184;28;20191;-62
2022/07/19 10:34:21;;;;;;;53.28;50.38;;;;;;;30.50;25.13;96973.22;5074866;28;20707;-62
2022/07/19 10:36:48;;;;;;;53.88;50.65;;;;;;;30.68;25.73;96962.81;5057081;28;20633;-62
2022/07/19 10:39:34;;;;;;;56.47;53.35;;;;;;;30.82;25.00;96970.44;5074671;28;20595;-62
2022/07/19 10:42:21;;;;;;;46.58;43.83;;;;;;;30.91;25.32;96968.34;5075030;28;20238;-63
2022/07/19 10:44:55;;;;;;;53.40;50.42;;;;;;;30.78;25.46;96966.88;5074786;28;20204;-62
2022/07/19 10:47:40;;;;;;;44.95;42.55;;;;;;;30.76;24.88;96967.22;5074644;28;20176;-62
2022/07/19 10:50:08;;;;;;;55.53;52.42;;;;;;;30.41;25.71;96960.97;5023186;28;20200;-62
2022/07/19 10:52:38;;;;;;;49.50;46.53;;;;;;;30.71;26.22;96958.59;5074593;28;20240;-62
2022/07/19 10:55:25;;;;;;;51.55;48.75;;;;;;;30.83;26.03;96953.06;5053132;28;20572;-62
2022/07/19 10:57:58;;;;;;;52.67;49.85;;;;;;;31.04;26.42;96956.25;5053573;28;20182;-62
2022/07/19 11:00:29;;;;;;;47.97;44.95;;;;;;;30.77;25.10;96960.69;5054760;28;20167;-62
2022/07/19 11:03:22;;;;;;;47.40;44.40;;;;;;;31.10;25.75;96954.84;5053996;28;20212;-62
2022/07/19 11:05:53;;;;;;;43.78;41.33;;;;;;;31.24;25.38;96944.31;5054304;28;20373;-62
2022/07/19 11:08:37;;;;;;;41.05;38.65;;;;;;;31.16;25.50;96944.50;5053300;28;20190;-62
2022/07/19 11:11:21;;;;;;;43.05;40.65;;;;;;;30.76;25.42;96928.56;5054031;28;20204;-62
2022/07/19 11:13:49;;;;;;;44.45;41.90;;;;;;;30.91;25.58;96931.22;5054687;28;20170;-63
2022/07/19 11:16:15;;;;;;;48.05;45.47;;;;;;;31.00;24.82;96920.16;5054490;28;20193;-63
2022/07/19 11:18:43;;;;;;;46.70;43.97;;;;;;;30.94;25.05;96927.00;5054046;28;20181;-62